Time;durP1;ratioP1;P1;durP2;ratioP2;P2;SDS_P1;SDS_P2;PMS_P1;PMS_P2;Temp;Humidity;BMP_temperature;BMP_pressure;BME280_temperature;BME280_humidity;BME280_pressure;Samples;Min_cycle;Max_cycle;Signal;HPM_P1;HPM_P2
2023/06/08 00:02:19;;;;;;;6.90;6.30;;;;;;;;;;5067072;28;20257;-92
2023/06/08 00:04:46;;;;;;;8.50;7.80;;;;;;;;;;5055909;28;20230;-93
2023/06/08 00:07:14;;;;;;;7.07;6.47;;;;;;;;;;5079851;28;20231;-93
2023/06/08 00:09:42;;;;;;;7.68;6.97;;;;;;;;;;5071196;28;20207;-94
2023/06/08 00:12:10;;;;;;;7.10;6.50;;;;;;;;;;5053709;28;20209;-94
2023/06/08 00:14:38;;;;;;;8.68;8.07;;;;;;;;;;5072157;28;20219;-94
2023/06/08 00:17:10;;;;;;;7.93;7.28;;;;;;;;;;5065359;28;20230;-95
2023/06/08 00:19:37;;;;;;;7.45;6.85;;;;;;;;;;5071838;28;20254;-96
2023/06/08 00:22:08;;;;;;;7.95;7.15;;;;;;;;;;5072682;28;20210;-95
2023/06/08 00:24:36;;;;;;;7.60;7.00;;;;;;;;;;5064998;28;20253;-95
2023/06/08 00:27:03;;;;;;;7.35;6.82;;;;;;;;;;5070803;28;20213;-94
2023/06/08 00:29:31;;;;;;;7.90;7.30;;;;;;;;;;5072631;28;20202;-94
2023/06/08 00:31:58;;;;;;;7.32;6.72;;;;;;;;;;5061707;28;20287;-95
2023/06/08 00:34:28;;;;;;;8.15;7.45;;;;;;;;;;5075315;28;20215;-95
2023/06/08 00:36:56;;;;;;;8.70;7.28;;;;;;;;;;5070280;28;20202;-94
2023/06/08 00:39:23;;;;;;;7.93;7.22;;;;;;;;;;5059602;28;20253;-93
2023/06/08 00:41:51;;;;;;;7.82;7.10;;;;;;;;;;5060833;28;20217;-93
2023/06/08 00:44:18;;;;;;;7.80;7.10;;;;;;;;;;5049484;28;20202;-95
2023/06/08 00:46:46;;;;;;;8.05;7.30;;;;;;;;;;5071095;28;20198;-94
2023/06/08 00:49:15;;;;;;;8.10;7.35;;;;;;;;;;5074569;28;20202;-93
2023/06/08 00:51:45;;;;;;;8.18;7.45;;;;;;;;;;5074377;28;20209;-90
2023/06/08 00:54:14;;;;;;;8.18;7.57;;;;;;;;;;5062885;28;20195;-94
2023/06/08 00:56:42;;;;;;;8.05;7.13;;;;;;;;;;5072673;28;20218;-95
2023/06/08 00:59:11;;;;;;;8.43;7.63;;;;;;;;;;5059345;28;20222;-95
2023/06/08 01:01:40;;;;;;;8.00;7.20;;;;;;;;;;5068435;28;20210;-94
2023/06/08 01:04:09;;;;;;;8.88;7.78;;;;;;;;;;5076157;28;20203;-92
2023/06/08 01:06:36;;;;;;;8.60;7.43;;;;;;;;;;5076082;28;20203;-93
2023/06/08 01:09:15;;;;;;;8.52;7.57;;;;;;;;;;5075259;28;20222;-95
2023/06/08 01:11:47;;;;;;;7.40;6.80;;;;;;;;;;5072729;28;20199;-95
2023/06/08 01:14:19;;;;;;;8.13;7.40;;;;;;;;;;5071640;28;20195;-93
2023/06/08 01:16:50;;;;;;;8.02;7.20;;;;;;;;;;5072120;28;20213;-94
2023/06/08 01:19:23;;;;;;;8.10;7.50;;;;;;;;;;5059339;28;20237;-95
2023/06/08 01:21:59;;;;;;;7.75;7.15;;;;;;;;;;5076437;28;20207;-93
2023/06/08 01:24:31;;;;;;;8.05;7.35;;;;;;;;;;5067327;28;20289;-94
2023/06/08 01:26:59;;;;;;;8.65;7.93;;;;;;;;;;5074446;28;20210;-94
2023/06/08 01:29:27;;;;;;;8.70;8.00;;;;;;;;;;5070709;28;20210;-93
2023/06/08 01:31:55;;;;;;;8.00;7.30;;;;;;;;;;5068525;28;20281;-94
2023/06/08 01:34:22;;;;;;;7.88;7.28;;;;;;;;;;5064924;28;20202;-95
2023/06/08 01:36:53;;;;;;;7.50;6.80;;;;;;;;;;5070091;28;20250;-94
2023/06/08 01:39:25;;;;;;;7.85;7.00;;;;;;;;;;5074997;28;20202;-95
2023/06/08 01:41:56;;;;;;;7.25;6.65;;;;;;;;;;5074802;28;20233;-94
2023/06/08 01:44:25;;;;;;;7.65;6.95;;;;;;;;;;5072462;28;20211;-94
2023/06/08 01:46:56;;;;;;;7.30;6.70;;;;;;;;;;5071589;28;20221;-94
2023/06/08 01:49:24;;;;;;;7.18;6.55;;;;;;;;;;5060756;28;20202;-92
2023/06/08 01:51:52;;;;;;;7.38;6.78;;;;;;;;;;5074984;28;20268;-93
2023/06/08 01:54:19;;;;;;;7.50;6.78;;;;;;;;;;5074441;28;20199;-92
2023/06/08 01:56:46;;;;;;;7.88;7.10;;;;;;;;;;5069725;28;20225;-94
2023/06/08 01:59:15;;;;;;;7.60;7.05;;;;;;;;;;5073693;28;20250;-94
2023/06/08 02:01:43;;;;;;;7.78;7.07;;;;;;;;;;5073853;28;20306;-94
2023/06/08 02:04:10;;;;;;;7.07;6.47;;;;;;;;;;5073116;28;20209;-95
2023/06/08 02:06:37;;;;;;;8.18;7.43;;;;;;;;;;5074545;28;20267;-93
2023/06/08 02:09:05;;;;;;;8.02;7.35;;;;;;;;;;5068440;28;20209;-94
2023/06/08 02:11:32;;;;;;;8.70;7.85;;;;;;;;;;5073379;28;20210;-94
2023/06/08 02:14:00;;;;;;;9.07;8.27;;;;;;;;;;5071981;28;20195;-94
2023/06/08 02:16:29;;;;;;;8.68;7.88;;;;;;;;;;5073848;28;20217;-93
2023/06/08 02:18:59;;;;;;;8.48;7.60;;;;;;;;;;5073802;28;20234;-93
2023/06/08 02:21:26;;;;;;;9.02;8.15;;;;;;;;;;5073311;28;20281;-93
2023/06/08 02:23:54;;;;;;;8.73;7.82;;;;;;;;;;5072395;28;20277;-94
2023/06/08 02:26:22;;;;;;;8.45;7.70;;;;;;;;;;5074451;28;20210;-93
2023/06/08 02:28:49;;;;;;;9.55;8.63;;;;;;;;;;5073145;28;20194;-94
2023/06/08 02:31:17;;;;;;;9.93;9.02;;;;;;;;;;5069843;28;20202;-95
2023/06/08 02:33:46;;;;;;;9.55;8.55;;;;;;;;;;5070665;28;20210;-95
2023/06/08 02:36:14;;;;;;;10.05;9.23;;;;;;;;;;5069755;28;20222;-92
2023/06/08 02:38:42;;;;;;;9.18;8.38;;;;;;;;;;5068454;28;20314;-95
2023/06/08 02:41:09;;;;;;;8.50;7.88;;;;;;;;;;5072723;28;20234;-93
2023/06/08 02:43:37;;;;;;;8.70;8.00;;;;;;;;;;5073495;28;20207;-94
2023/06/08 02:46:04;;;;;;;8.38;7.63;;;;;;;;;;5071247;28;20211;-92
2023/06/08 02:48:31;;;;;;;9.43;8.63;;;;;;;;;;5071208;28;20213;-93
2023/06/08 02:51:01;;;;;;;9.77;8.98;;;;;;;;;;5068529;28;20209;-94
2023/06/08 02:53:28;;;;;;;9.85;9.00;;;;;;;;;;5065719;28;20210;-94
2023/06/08 02:55:56;;;;;;;10.07;9.13;;;;;;;;;;5071326;28;20214;-95
2023/06/08 02:58:23;;;;;;;9.35;8.60;;;;;;;;;;5068783;28;20301;-95
2023/06/08 03:00:53;;;;;;;9.90;9.20;;;;;;;;;;5069835;28;20202;-93
2023/06/08 03:03:23;;;;;;;8.80;8.10;;;;;;;;;;5067958;28;20223;-93
2023/06/08 03:05:50;;;;;;;9.85;9.05;;;;;;;;;;5071801;28;20198;-94
2023/06/08 03:08:19;;;;;;;10.10;9.18;;;;;;;;;;5060127;28;20231;-95
2023/06/08 03:10:47;;;;;;;9.63;8.82;;;;;;;;;;5073529;28;20228;-93
2023/06/08 03:13:14;;;;;;;9.73;8.93;;;;;;;;;;5071672;28;20205;-93
2023/06/08 03:15:43;;;;;;;10.07;9.20;;;;;;;;;;5065457;28;20219;-95
2023/06/08 03:18:10;;;;;;;11.43;10.40;;;;;;;;;;5057495;28;20222;-95
2023/06/08 03:20:38;;;;;;;10.57;9.77;;;;;;;;;;5074560;28;20199;-95
2023/06/08 03:23:05;;;;;;;11.18;10.18;;;;;;;;;;5072201;28;20289;-91
2023/06/08 03:25:36;;;;;;;10.30;9.23;;;;;;;;;;5072124;28;20211;-93
2023/06/08 03:28:04;;;;;;;10.57;9.68;;;;;;;;;;5069772;28;20207;-93
2023/06/08 03:30:31;;;;;;;12.93;11.88;;;;;;;;;;5064934;28;20256;-95
2023/06/08 03:32:59;;;;;;;13.60;12.38;;;;;;;;;;5062974;28;20205;-95
2023/06/08 03:35:26;;;;;;;14.52;13.20;;;;;;;;;;5072874;28;20229;-92
2023/06/08 03:37:54;;;;;;;13.65;12.45;;;;;;;;;;5074405;28;20209;-95
2023/06/08 03:40:21;;;;;;;14.18;12.90;;;;;;;;;;5055369;28;20209;-94
2023/06/08 03:42:50;;;;;;;13.20;12.10;;;;;;;;;;5073318;28;20198;-94
2023/06/08 03:45:18;;;;;;;11.75;10.63;;;;;;;;;;5066424;28;20196;-95
2023/06/08 03:47:45;;;;;;;11.90;10.90;;;;;;;;;;5073139;28;20202;-94
2023/06/08 03:50:13;;;;;;;11.38;10.27;;;;;;;;;;5069168;28;20209;-94
2023/06/08 03:52:40;;;;;;;12.05;10.95;;;;;;;;;;5072889;28;20269;-95
2023/06/08 03:55:09;;;;;;;11.73;10.73;;;;;;;;;;5070292;28;20286;-94
2023/06/08 03:57:36;;;;;;;11.40;10.45;;;;;;;;;;5071890;28;20219;-94
2023/06/08 04:00:07;;;;;;;11.23;10.32;;;;;;;;;;5067486;28;20210;-92
2023/06/08 04:02:34;;;;;;;11.52;10.63;;;;;;;;;;5073357;28;20221;-94
2023/06/08 04:05:02;;;;;;;11.57;10.63;;;;;;;;;;5075069;28;20230;-94
2023/06/08 04:07:32;;;;;;;11.88;10.98;;;;;;;;;;5067899;28;20206;-95
2023/06/08 04:09:59;;;;;;;11.55;10.63;;;;;;;;;;5076718;28;20203;-95
2023/06/08 04:12:28;;;;;;;11.48;10.50;;;;;;;;;;5075206;28;20261;-95
2023/06/08 04:14:55;;;;;;;12.18;11.02;;;;;;;;;;5072002;28;20214;-94
2023/06/08 04:17:27;;;;;;;11.98;10.88;;;;;;;;;;5076880;28;20219;-94
2023/06/08 04:19:54;;;;;;;11.10;10.20;;;;;;;;;;5068561;28;20198;-94
2023/06/08 04:22:22;;;;;;;11.38;10.38;;;;;;;;;;5067806;28;20199;-93
2023/06/08 04:24:50;;;;;;;11.85;10.57;;;;;;;;;;5071197;28;20205;-94
2023/06/08 04:27:17;;;;;;;11.23;10.43;;;;;;;;;;5072592;28;20191;-94
2023/06/08 04:29:45;;;;;;;11.40;10.40;;;;;;;;;;5059100;28;20198;-95
2023/06/08 04:32:12;;;;;;;11.80;10.73;;;;;;;;;;5074581;28;20195;-95
2023/06/08 04:34:41;;;;;;;11.40;10.50;;;;;;;;;;5062299;28;20264;-95
2023/06/08 04:37:09;;;;;;;10.63;9.68;;;;;;;;;;5075782;28;20238;-95
2023/06/08 04:39:36;;;;;;;9.35;8.63;;;;;;;;;;5075712;28;20211;-95
2023/06/08 04:42:05;;;;;;;11.15;10.10;;;;;;;;;;5068857;28;20297;-92
2023/06/08 04:44:33;;;;;;;11.90;10.85;;;;;;;;;;5076008;28;20207;-94
2023/06/08 04:47:01;;;;;;;11.02;10.13;;;;;;;;;;5075513;28;20194;-94
2023/06/08 04:49:31;;;;;;;10.85;9.85;;;;;;;;;;5064106;28;20199;-94
2023/06/08 04:51:59;;;;;;;9.82;8.93;;;;;;;;;;5057065;28;20209;-94
2023/06/08 04:54:27;;;;;;;10.18;9.38;;;;;;;;;;5073085;28;20245;-94
2023/06/08 04:56:58;;;;;;;10.77;9.88;;;;;;;;;;5074437;28;20219;-94
2023/06/08 04:59:26;;;;;;;9.27;8.50;;;;;;;;;;5075257;28;20195;-93
2023/06/08 05:01:53;;;;;;;9.25;8.55;;;;;;;;;;5074481;28;20206;-93
2023/06/08 05:04:20;;;;;;;8.95;8.15;;;;;;;;;;5068993;28;20199;-95
2023/06/08 05:06:48;;;;;;;8.80;8.00;;;;;;;;;;5054772;28;20259;-93
2023/06/08 05:09:17;;;;;;;8.90;8.20;;;;;;;;;;5076606;28;20198;-94
2023/06/08 05:11:44;;;;;;;9.80;8.90;;;;;;;;;;5056503;28;20203;-94
2023/06/08 05:14:12;;;;;;;9.50;8.70;;;;;;;;;;5074154;28;20210;-94
2023/06/08 05:16:39;;;;;;;9.52;8.82;;;;;;;;;;5070216;28;20229;-93
2023/06/08 05:19:07;;;;;;;9.68;8.88;;;;;;;;;;5072257;28;20223;-94
2023/06/08 05:21:36;;;;;;;9.30;8.60;;;;;;;;;;5072205;28;20205;-94
2023/06/08 05:24:04;;;;;;;9.13;8.43;;;;;;;;;;5074956;28;20199;-93
2023/06/08 05:26:32;;;;;;;8.75;7.95;;;;;;;;;;5069615;28;20210;-94
2023/06/08 05:29:01;;;;;;;9.93;8.90;;;;;;;;;;5074612;28;20198;-94
2023/06/08 05:31:29;;;;;;;9.13;8.23;;;;;;;;;;5050105;28;20199;-92
2023/06/08 05:33:56;;;;;;;8.57;7.80;;;;;;;;;;5074314;28;20203;-93
2023/06/08 05:36:25;;;;;;;7.80;7.18;;;;;;;;;;5071002;28;20227;-93
2023/06/08 05:38:52;;;;;;;8.00;7.30;;;;;;;;;;5074122;28;20199;-92
2023/06/08 05:41:20;;;;;;;8.02;7.32;;;;;;;;;;5072633;28;20202;-94
2023/06/08 05:43:49;;;;;;;8.30;7.57;;;;;;;;;;5074160;28;20202;-93
2023/06/08 05:46:16;;;;;;;8.30;7.55;;;;;;;;;;5071877;28;20279;-94
2023/06/08 05:48:43;;;;;;;8.07;7.30;;;;;;;;;;5057191;28;20199;-93
2023/06/08 05:51:11;;;;;;;7.68;7.07;;;;;;;;;;5077346;28;20213;-95
2023/06/08 05:53:39;;;;;;;7.85;7.18;;;;;;;;;;5057528;28;20198;-94
2023/06/08 05:56:06;;;;;;;7.93;7.32;;;;;;;;;;5053403;28;20229;-92
2023/06/08 05:58:34;;;;;;;8.15;7.32;;;;;;;;;;5057923;28;20210;-93
2023/06/08 06:01:04;;;;;;;7.28;6.68;;;;;;;;;;5071088;28;20203;-93
2023/06/08 06:03:31;;;;;;;8.85;7.35;;;;;;;;;;5070689;28;20217;-94
2023/06/08 06:06:00;;;;;;;7.32;6.65;;;;;;;;;;5058611;28;20256;-94
2023/06/08 06:08:28;;;;;;;8.30;7.55;;;;;;;;;;5069424;28;20210;-93
2023/06/08 06:10:55;;;;;;;7.75;7.15;;;;;;;;;;5072174;28;20205;-93
2023/06/08 06:13:22;;;;;;;7.00;6.40;;;;;;;;;;5072368;28;20207;-93
2023/06/08 06:15:50;;;;;;;7.47;6.88;;;;;;;;;;5068446;28;20213;-92
2023/06/08 06:18:19;;;;;;;7.30;6.65;;;;;;;;;;5072472;28;20246;-93
2023/06/08 06:20:47;;;;;;;7.55;6.95;;;;;;;;;;5069780;28;20195;-94
2023/06/08 06:23:14;;;;;;;6.35;5.90;;;;;;;;;;5070740;28;20214;-94
2023/06/08 06:25:43;;;;;;;7.10;6.57;;;;;;;;;;5066754;28;20235;-92
2023/06/08 06:28:10;;;;;;;7.45;6.85;;;;;;;;;;5071382;28;20221;-93
2023/06/08 06:30:37;;;;;;;6.75;6.25;;;;;;;;;;5070394;28;20213;-94
2023/06/08 06:33:05;;;;;;;7.07;6.47;;;;;;;;;;5069959;28;20271;-92
2023/06/08 06:35:33;;;;;;;6.72;6.20;;;;;;;;;;5060442;28;20209;-92
2023/06/08 06:38:00;;;;;;;5.97;5.47;;;;;;;;;;5068349;28;20218;-91
2023/06/08 06:40:28;;;;;;;6.05;5.65;;;;;;;;;;5081083;28;20206;-92
2023/06/08 06:42:55;;;;;;;6.78;6.18;;;;;;;;;;5058309;28;20232;-93
2023/06/08 06:45:23;;;;;;;7.43;6.78;;;;;;;;;;5069391;28;20206;-92
2023/06/08 06:47:50;;;;;;;7.47;6.88;;;;;;;;;;5055693;28;20210;-92
2023/06/08 06:50:18;;;;;;;6.50;5.90;;;;;;;;;;5052433;28;20217;-92
2023/06/08 06:52:47;;;;;;;6.00;5.50;;;;;;;;;;5051615;28;20225;-90
2023/06/08 06:55:14;;;;;;;6.07;5.57;;;;;;;;;;5062089;28;20217;-91
2023/06/08 06:57:41;;;;;;;6.32;5.82;;;;;;;;;;5069632;28;20214;-90
2023/06/08 07:00:10;;;;;;;7.32;6.70;;;;;;;;;;5067169;28;20211;-91
2023/06/08 07:02:38;;;;;;;6.18;5.68;;;;;;;;;;5066495;28;20207;-89
2023/06/08 07:05:07;;;;;;;7.40;6.20;;;;;;;;;;5050296;28;20242;-92
2023/06/08 07:07:34;;;;;;;6.10;5.63;;;;;;;;;;5063841;28;20206;-90
2023/06/08 07:10:04;;;;;;;7.47;6.72;;;;;;;;;;5053526;28;20206;-92
2023/06/08 07:12:31;;;;;;;7.22;6.63;;;;;;;;;;5063489;28;20213;-91
2023/06/08 07:14:58;;;;;;;7.05;6.43;;;;;;;;;;5070717;28;20205;-92
2023/06/08 07:17:26;;;;;;;6.00;5.50;;;;;;;;;;5066129;28;20218;-92
2023/06/08 07:19:53;;;;;;;6.15;5.70;;;;;;;;;;5050330;28;20214;-93
2023/06/08 07:22:21;;;;;;;6.80;6.20;;;;;;;;;;5071443;28;20198;-93
2023/06/08 07:24:48;;;;;;;6.65;5.97;;;;;;;;;;5073963;28;20207;-93
2023/06/08 07:27:17;;;;;;;5.55;5.10;;;;;;;;;;5064957;28;20209;-94
2023/06/08 07:29:44;;;;;;;6.03;5.53;;;;;;;;;;5073137;28;20210;-94
2023/06/08 07:32:12;;;;;;;5.80;5.40;;;;;;;;;;5069928;28;20195;-91
2023/06/08 07:34:40;;;;;;;5.95;5.55;;;;;;;;;;5062147;28;20214;-93
2023/06/08 07:37:07;;;;;;;5.47;5.07;;;;;;;;;;5068979;28;20223;-93
2023/06/08 07:39:35;;;;;;;6.30;5.80;;;;;;;;;;5069358;28;20297;-91
2023/06/08 07:42:03;;;;;;;6.70;6.00;;;;;;;;;;5079381;28;20288;-90
2023/06/08 07:44:32;;;;;;;6.70;6.10;;;;;;;;;;5069544;28;20210;-90
2023/06/08 07:47:00;;;;;;;5.43;5.03;;;;;;;;;;5078355;28;20217;-91
2023/06/08 07:49:29;;;;;;;6.57;5.32;;;;;;;;;;5076363;28;20206;-93
2023/06/08 07:51:57;;;;;;;5.80;5.30;;;;;;;;;;5071421;28;20294;-91
2023/06/08 07:54:25;;;;;;;5.28;4.80;;;;;;;;;;5072084;28;20209;-92
2023/06/08 07:56:53;;;;;;;5.07;4.50;;;;;;;;;;5074716;28;20252;-90
2023/06/08 07:59:20;;;;;;;6.25;5.15;;;;;;;;;;5072518;28;20286;-90
2023/06/08 08:01:49;;;;;;;4.85;4.45;;;;;;;;;;5070940;28;20195;-90
2023/06/08 08:04:16;;;;;;;4.45;4.05;;;;;;;;;;5071195;28;20293;-90
2023/06/08 08:06:43;;;;;;;5.20;4.75;;;;;;;;;;5075379;28;20207;-90
2023/06/08 08:09:11;;;;;;;4.53;4.22;;;;;;;;;;5069519;28;20274;-90
2023/06/08 08:11:38;;;;;;;6.80;5.00;;;;;;;;;;5071971;28;20286;-89
2023/06/08 08:14:09;;;;;;;5.22;4.70;;;;;;;;;;5070750;28;20260;-88
2023/06/08 08:16:36;;;;;;;4.90;4.50;;;;;;;;;;5071894;28;20210;-90
2023/06/08 08:19:05;;;;;;;4.72;4.40;;;;;;;;;;5082074;28;20238;-89
2023/06/08 08:21:33;;;;;;;5.05;4.65;;;;;;;;;;5050308;28;20206;-90
2023/06/08 08:24:00;;;;;;;5.45;4.97;;;;;;;;;;5070892;28;20258;-89
2023/06/08 08:26:28;;;;;;;5.50;4.93;;;;;;;;;;5075140;28;20206;-93
2023/06/08 08:28:56;;;;;;;4.80;4.50;;;;;;;;;;5052502;28;20199;-89
2023/06/08 08:31:23;;;;;;;4.70;4.20;;;;;;;;;;5075599;28;20309;-91
2023/06/08 08:33:51;;;;;;;5.00;4.50;;;;;;;;;;5066225;28;20213;-89
2023/06/08 08:36:20;;;;;;;4.72;4.38;;;;;;;;;;5073875;28;20263;-93
2023/06/08 08:38:48;;;;;;;4.82;4.53;;;;;;;;;;5050139;28;20241;-88
2023/06/08 08:41:16;;;;;;;4.80;4.40;;;;;;;;;;5073505;28;20202;-90
2023/06/08 08:43:50;;;;;;;4.75;4.35;;;;;;;;;;5070156;28;20210;-91
2023/06/08 08:46:18;;;;;;;5.13;4.68;;;;;;;;;;5072513;28;20230;-92
2023/06/08 08:48:48;;;;;;;5.45;4.95;;;;;;;;;;5047589;28;20265;-93
2023/06/08 08:51:19;;;;;;;5.00;4.60;;;;;;;;;;5054063;28;20289;-94
2023/06/08 08:53:49;;;;;;;5.00;4.45;;;;;;;;;;5080576;28;20199;-92
2023/06/08 08:56:19;;;;;;;5.30;4.35;;;;;;;;;;5071462;28;20222;-91
2023/06/08 08:58:47;;;;;;;5.20;4.38;;;;;;;;;;5068583;28;20233;-92
2023/06/08 09:01:15;;;;;;;4.40;3.90;;;;;;;;;;5065604;28;20195;-91
2023/06/08 09:03:42;;;;;;;4.30;4.00;;;;;;;;;;5071522;28;20206;-93
2023/06/08 09:06:09;;;;;;;4.22;3.90;;;;;;;;;;5072002;28;20262;-93
2023/06/08 09:08:37;;;;;;;4.35;3.95;;;;;;;;;;5073127;28;20275;-94
2023/06/08 09:11:08;;;;;;;5.10;4.35;;;;;;;;;;5072812;28;20225;-91
2023/06/08 09:13:38;;;;;;;4.88;4.47;;;;;;;;;;5069906;28;20207;-92
2023/06/08 09:16:10;;;;;;;4.80;4.40;;;;;;;;;;5082713;28;20212;-92
2023/06/08 09:18:38;;;;;;;4.63;4.32;;;;;;;;;;5071846;28;20246;-92
2023/06/08 09:21:22;;;;;;;4.60;4.20;;;;;;;;;;5074221;28;20306;-91
2023/06/08 09:24:05;;;;;;;4.45;4.15;;;;;;;;;;5056188;28;20208;-92
2023/06/08 09:26:34;;;;;;;4.00;3.72;;;;;;;;;;5071784;28;20207;-92
2023/06/08 09:29:02;;;;;;;4.47;4.07;;;;;;;;;;5071322;28;20214;-92
2023/06/08 09:31:30;;;;;;;4.55;4.20;;;;;;;;;;5067357;28;20204;-93
2023/06/08 09:34:08;;;;;;;5.32;4.93;;;;;;;;;;5073203;28;20209;-93
2023/06/08 09:36:38;;;;;;;5.38;4.97;;;;;;;;;;5072372;28;20202;-92
2023/06/08 09:39:07;;;;;;;4.60;4.30;;;;;;;;;;5071816;28;20219;-93
2023/06/08 09:41:37;;;;;;;3.88;3.55;;;;;;;;;;5066613;28;20203;-92
2023/06/08 09:44:17;;;;;;;4.53;4.03;;;;;;;;;;5065049;28;20196;-93
2023/06/08 09:46:45;;;;;;;4.72;4.40;;;;;;;;;;5073581;28;20206;-92
2023/06/08 09:49:14;;;;;;;4.63;4.22;;;;;;;;;;5073854;28;20214;-92
2023/06/08 09:51:46;;;;;;;4.68;4.28;;;;;;;;;;5074199;28;20203;-92
2023/06/08 09:54:15;;;;;;;6.43;4.65;;;;;;;;;;5074124;28;20266;-92
2023/06/08 09:56:46;;;;;;;4.47;4.10;;;;;;;;;;5071883;28;20207;-93
2023/06/08 09:59:16;;;;;;;4.28;3.97;;;;;;;;;;5068005;28;20226;-93
2023/06/08 10:01:45;;;;;;;4.75;4.30;;;;;;;;;;5070881;28;20203;-91
2023/06/08 10:04:21;;;;;;;4.45;4.13;;;;;;;;;;5049215;28;20246;-92
2023/06/08 10:06:50;;;;;;;4.10;3.80;;;;;;;;;;5069981;28;20211;-92
2023/06/08 10:09:21;;;;;;;4.45;4.15;;;;;;;;;;5074229;28;20240;-93
2023/06/08 10:11:50;;;;;;;4.00;3.70;;;;;;;;;;5065293;28;20225;-93
2023/06/08 10:14:18;;;;;;;4.85;4.45;;;;;;;;;;5074918;28;20215;-93
2023/06/08 10:16:47;;;;;;;4.30;4.00;;;;;;;;;;5070590;28;20233;-92
2023/06/08 10:19:15;;;;;;;5.03;4.53;;;;;;;;;;5073405;28;20323;-93
2023/06/08 10:21:42;;;;;;;4.72;4.28;;;;;;;;;;5055169;28;20200;-93
2023/06/08 10:24:10;;;;;;;4.05;3.75;;;;;;;;;;5068888;28;20199;-93
2023/06/08 10:26:38;;;;;;;4.78;4.40;;;;;;;;;;5063392;28;20209;-92
2023/06/08 10:29:08;;;;;;;4.05;3.75;;;;;;;;;;5058414;28;20215;-93
2023/06/08 10:31:37;;;;;;;4.18;3.50;;;;;;;;;;5053862;28;20208;-93
2023/06/08 10:34:08;;;;;;;4.32;3.90;;;;;;;;;;5059709;28;20301;-93
2023/06/08 10:36:39;;;;;;;3.55;3.30;;;;;;;;;;5073935;28;20206;-93
2023/06/08 10:39:10;;;;;;;4.95;4.50;;;;;;;;;;5068105;28;20238;-94
2023/06/08 10:41:44;;;;;;;4.97;4.10;;;;;;;;;;5060606;28;20207;-93
2023/06/08 10:44:29;;;;;;;4.47;3.80;;;;;;;;;;5065447;28;20206;-92
2023/06/08 10:46:57;;;;;;;4.13;3.42;;;;;;;;;;5073723;28;20226;-93
2023/06/08 10:49:24;;;;;;;4.82;4.43;;;;;;;;;;5073566;28;20213;-93
2023/06/08 10:51:56;;;;;;;4.15;3.75;;;;;;;;;;5074367;28;20282;-93
2023/06/08 10:54:23;;;;;;;4.22;3.92;;;;;;;;;;5065037;28;20191;-92
2023/06/08 10:56:52;;;;;;;4.40;4.00;;;;;;;;;;5063685;28;20214;-92
2023/06/08 10:59:23;;;;;;;4.68;4.38;;;;;;;;;;5059493;28;20329;-92
2023/06/08 11:01:53;;;;;;;7.45;4.15;;;;;;;;;;5070429;28;20233;-93
2023/06/08 11:04:20;;;;;;;4.60;4.20;;;;;;;;;;5071495;28;20286;-93
2023/06/08 11:06:47;;;;;;;4.60;4.25;;;;;;;;;;5070531;28;20202;-92
2023/06/08 11:09:16;;;;;;;4.03;3.60;;;;;;;;;;5065180;28;20215;-92
2023/06/08 11:11:53;;;;;;;4.68;4.00;;;;;;;;;;5065626;28;20261;-93
2023/06/08 11:14:21;;;;;;;6.25;4.10;;;;;;;;;;5054191;28;20200;-92
2023/06/08 11:16:54;;;;;;;5.18;4.30;;;;;;;;;;5054243;28;20207;-92
2023/06/08 11:19:21;;;;;;;4.03;3.70;;;;;;;;;;5053513;28;20263;-92
2023/06/08 11:21:50;;;;;;;4.63;4.07;;;;;;;;;;5063186;28;20199;-92
2023/06/08 11:24:17;;;;;;;4.25;3.95;;;;;;;;;;5057567;28;20294;-92
2023/06/08 11:26:45;;;;;;;3.70;3.50;;;;;;;;;;5071698;28;20205;-93
2023/06/08 11:29:13;;;;;;;4.00;3.70;;;;;;;;;;5064413;28;20243;-93
2023/06/08 11:31:41;;;;;;;4.60;4.30;;;;;;;;;;5053693;28;20207;-93
2023/06/08 11:34:13;;;;;;;4.70;4.20;;;;;;;;;;5063614;28;20207;-92
2023/06/08 11:36:42;;;;;;;4.18;3.88;;;;;;;;;;5057147;28;20215;-92
2023/06/08 11:39:10;;;;;;;5.00;4.60;;;;;;;;;;5053291;28;20223;-92
2023/06/08 11:41:38;;;;;;;4.55;4.15;;;;;;;;;;5067814;28;20210;-93
2023/06/08 11:44:05;;;;;;;4.40;4.10;;;;;;;;;;5063769;28;20199;-93
2023/06/08 11:46:32;;;;;;;4.30;3.90;;;;;;;;;;5073390;28;20264;-92
2023/06/08 11:49:08;;;;;;;5.75;4.35;;;;;;;;;;5068751;28;20213;-91
2023/06/08 11:51:44;;;;;;;9.02;4.50;;;;;;;;;;5053902;28;20210;-92
2023/06/08 11:54:12;;;;;;;7.57;4.47;;;;;;;;;;5069331;28;20226;-92
2023/06/08 11:56:39;;;;;;;4.50;4.10;;;;;;;;;;5070634;28;20202;-92
2023/06/08 11:59:06;;;;;;;3.80;3.50;;;;;;;;;;5066072;28;20307;-92
2023/06/08 12:01:34;;;;;;;5.05;4.03;;;;;;;;;;5059810;28;20210;-91
2023/06/08 12:04:02;;;;;;;4.13;3.80;;;;;;;;;;5057163;28;20198;-91
2023/06/08 12:06:31;;;;;;;4.18;3.60;;;;;;;;;;5061944;28;20202;-91
2023/06/08 12:08:59;;;;;;;8.15;4.00;;;;;;;;;;5072702;28;20207;-92
2023/06/08 12:11:27;;;;;;;7.18;4.40;;;;;;;;;;5060040;28;20207;-91
2023/06/08 12:13:54;;;;;;;8.18;4.70;;;;;;;;;;5060872;28;20203;-93
2023/06/08 12:16:22;;;;;;;6.80;5.00;;;;;;;;;;5061654;28;20234;-94
2023/06/08 12:18:49;;;;;;;4.70;4.30;;;;;;;;;;5072193;28;20237;-94
2023/06/08 12:21:19;;;;;;;7.25;4.75;;;;;;;;;;5065532;28;20203;-94
2023/06/08 12:23:46;;;;;;;8.55;4.60;;;;;;;;;;5074310;28;20202;-94
2023/06/08 12:26:15;;;;;;;7.57;5.18;;;;;;;;;;5069050;28;20202;-93
2023/06/08 12:28:43;;;;;;;10.02;5.00;;;;;;;;;;5057135;28;20257;-94
2023/06/08 12:31:11;;;;;;;8.07;5.15;;;;;;;;;;5070280;28;20213;-93
2023/06/08 12:33:39;;;;;;;7.50;4.78;;;;;;;;;;5076933;28;20202;-93
2023/06/08 12:36:07;;;;;;;6.65;4.22;;;;;;;;;;5063035;28;20264;-93
2023/06/08 12:38:35;;;;;;;5.63;4.30;;;;;;;;;;5070058;28;20226;-93
2023/06/08 12:41:02;;;;;;;4.60;4.15;;;;;;;;;;5050177;28;20207;-93
2023/06/08 12:43:31;;;;;;;4.40;4.00;;;;;;;;;;5067647;28;20222;-93
2023/06/08 12:45:58;;;;;;;7.53;6.82;;;;;;;;;;5067579;28;20267;-94
2023/06/08 12:48:26;;;;;;;7.32;5.40;;;;;;;;;;5068890;28;20222;-94
2023/06/08 12:50:56;;;;;;;6.20;4.40;;;;;;;;;;5061196;28;20203;-93
2023/06/08 12:53:23;;;;;;;5.00;4.50;;;;;;;;;;5071222;28;20210;-92
2023/06/08 12:55:50;;;;;;;4.30;3.90;;;;;;;;;;5073964;28;20199;-91
2023/06/08 12:58:18;;;;;;;4.47;4.07;;;;;;;;;;5062120;28;20204;-94
2023/06/08 13:00:47;;;;;;;4.20;3.80;;;;;;;;;;5070151;28;20203;-95
2023/06/08 13:03:15;;;;;;;4.70;4.30;;;;;;;;;;5072715;28;20230;-94
2023/06/08 13:05:42;;;;;;;4.75;3.88;;;;;;;;;;5074484;28;20203;-93
2023/06/08 13:08:10;;;;;;;4.72;4.32;;;;;;;;;;5060659;28;20222;-94
2023/06/08 13:10:38;;;;;;;4.13;3.83;;;;;;;;;;5075327;28;20202;-94
2023/06/08 13:13:06;;;;;;;4.10;3.80;;;;;;;;;;5060767;28;20242;-95
2023/06/08 13:15:33;;;;;;;4.93;4.10;;;;;;;;;;5060051;28;20214;-93
2023/06/08 13:18:03;;;;;;;3.83;3.53;;;;;;;;;;5076338;28;20233;-94
2023/06/08 13:20:30;;;;;;;4.00;3.75;;;;;;;;;;5055954;28;20231;-94
2023/06/08 13:22:57;;;;;;;4.00;3.60;;;;;;;;;;5058802;28;20256;-94
2023/06/08 13:25:25;;;;;;;4.00;3.70;;;;;;;;;;5067149;28;20305;-93
2023/06/08 13:27:52;;;;;;;4.18;3.85;;;;;;;;;;5076091;28;20297;-93
2023/06/08 13:30:21;;;;;;;3.75;3.55;;;;;;;;;;5068109;28;20214;-93
2023/06/08 13:32:48;;;;;;;4.45;4.03;;;;;;;;;;5075348;28;20278;-92
2023/06/08 13:35:17;;;;;;;4.70;3.60;;;;;;;;;;5069630;28;20215;-92
2023/06/08 13:37:44;;;;;;;3.97;3.72;;;;;;;;;;5055278;28;20195;-92
2023/06/08 13:40:12;;;;;;;4.20;3.80;;;;;;;;;;5059262;28;20219;-92
2023/06/08 13:42:40;;;;;;;5.38;3.67;;;;;;;;;;5075133;28;20207;-92
2023/06/08 13:45:10;;;;;;;6.72;3.50;;;;;;;;;;5069608;28;20226;-92
2023/06/08 13:47:38;;;;;;;4.45;4.00;;;;;;;;;;5037976;28;20204;-92
2023/06/08 13:50:07;;;;;;;3.90;3.35;;;;;;;;;;5066024;28;20233;-92
2023/06/08 13:52:36;;;;;;;4.75;3.90;;;;;;;;;;5071197;28;20233;-91
2023/06/08 13:55:03;;;;;;;6.00;3.88;;;;;;;;;;5067393;28;20203;-91
2023/06/08 13:57:30;;;;;;;3.45;3.25;;;;;;;;;;5067462;28;20203;-91
2023/06/08 13:59:58;;;;;;;3.90;3.60;;;;;;;;;;5066429;28;20223;-90
2023/06/08 14:02:25;;;;;;;4.18;3.60;;;;;;;;;;5068897;28;20202;-90
2023/06/08 14:04:53;;;;;;;3.70;3.40;;;;;;;;;;5068079;28;20195;-89
2023/06/08 14:07:20;;;;;;;4.13;3.70;;;;;;;;;;5067292;28;20204;-89
2023/06/08 14:09:50;;;;;;;4.13;3.83;;;;;;;;;;5064955;28;20210;-90
2023/06/08 14:12:17;;;;;;;3.95;3.63;;;;;;;;;;5067558;28;20287;-90
2023/06/08 14:14:49;;;;;;;3.90;3.60;;;;;;;;;;5057758;28;20207;-90
2023/06/08 14:17:17;;;;;;;3.65;3.30;;;;;;;;;;5068762;28;20294;-90
2023/06/08 14:19:44;;;;;;;4.20;3.80;;;;;;;;;;5071158;28;20234;-91
2023/06/08 14:22:11;;;;;;;3.88;3.58;;;;;;;;;;5067195;28;20234;-90
2023/06/08 14:24:39;;;;;;;3.58;3.28;;;;;;;;;;5068010;28;20300;-92
2023/06/08 14:27:10;;;;;;;3.90;3.60;;;;;;;;;;5065246;28;20214;-91
2023/06/08 14:29:37;;;;;;;3.28;3.08;;;;;;;;;;5067462;28;20226;-91
2023/06/08 14:32:05;;;;;;;4.28;3.58;;;;;;;;;;5064690;28;20296;-91
2023/06/08 14:34:32;;;;;;;4.47;3.92;;;;;;;;;;5070590;28;20337;-91
2023/06/08 14:36:59;;;;;;;4.45;3.53;;;;;;;;;;5069605;28;20281;-91
2023/06/08 14:39:27;;;;;;;3.95;3.65;;;;;;;;;;5060760;28;20219;-91
2023/06/08 14:41:55;;;;;;;3.70;3.40;;;;;;;;;;5072957;28;20191;-90
2023/06/08 14:44:24;;;;;;;3.78;3.47;;;;;;;;;;5072910;28;20190;-90
2023/06/08 14:46:51;;;;;;;4.70;3.05;;;;;;;;;;5068584;28;20263;-90
2023/06/08 14:49:18;;;;;;;3.97;3.65;;;;;;;;;;5072188;28;20210;-96